createdAt,value
2023-05-08T00:00:19.457Z,9.63
2023-05-08T00:00:57.048Z,11.43
2023-05-08T00:01:33.104Z,9.27
2023-05-08T00:02:04.887Z,9.38
2023-05-08T00:02:36.545Z,9.10
2023-05-08T00:03:08.328Z,8.88
2023-05-08T00:03:40.210Z,9.93
2023-05-08T00:04:12.296Z,9.00
2023-05-08T00:04:44.049Z,9.07
2023-05-08T00:05:15.980Z,9.77
2023-05-08T00:05:47.595Z,9.02
2023-05-08T00:06:19.368Z,9.85
2023-05-08T00:06:53.057Z,9.48
2023-05-08T00:07:24.695Z,8.65
2023-05-08T00:08:01.394Z,9.05
2023-05-08T00:08:33.261Z,9.13
2023-05-08T00:09:04.916Z,10.90
2023-05-08T00:09:37.619Z,11.18
2023-05-08T00:10:10.472Z,9.07
2023-05-08T00:10:42.237Z,9.35
2023-05-08T00:11:14.193Z,8.05
2023-05-08T00:11:45.967Z,9.30
2023-05-08T00:12:17.643Z,8.77
2023-05-08T00:12:49.276Z,9.43
2023-05-08T00:13:21.171Z,8.48
2023-05-08T00:13:52.995Z,8.18
2023-05-08T00:14:24.653Z,7.88
2023-05-08T00:14:56.539Z,10.45
2023-05-08T00:15:28.158Z,8.80
2023-05-08T00:15:59.880Z,8.57
2023-05-08T00:16:32.707Z,9.90
2023-05-08T00:17:04.478Z,8.52
2023-05-08T00:17:36.296Z,9.80
2023-05-08T00:18:08.064Z,9.05
2023-05-08T00:18:40.079Z,8.98
2023-05-08T00:19:11.700Z,8.73
2023-05-08T00:19:43.345Z,8.57
2023-05-08T00:20:15.366Z,8.68
2023-05-08T00:20:47.184Z,9.27
2023-05-08T00:21:18.824Z,8.50
2023-05-08T00:21:50.421Z,9.02
2023-05-08T00:22:22.367Z,9.07
2023-05-08T00:22:53.961Z,9.60
2023-05-08T00:23:25.612Z,9.95
2023-05-08T00:23:57.294Z,9.20
2023-05-08T00:24:28.868Z,8.32
2023-05-08T00:25:00.481Z,9.38
2023-05-08T00:25:32.152Z,8.93
2023-05-08T00:26:04.234Z,8.95
2023-05-08T00:26:35.848Z,10.57
2023-05-08T00:27:08.366Z,10.88
2023-05-08T00:27:40.000Z,9.50
2023-05-08T00:28:11.592Z,8.98
2023-05-08T00:28:43.170Z,9.50
2023-05-08T00:29:14.810Z,10.18
2023-05-08T00:29:48.216Z,8.52
2023-05-08T00:30:20.057Z,9.48
2023-05-08T00:30:52.393Z,8.90
2023-05-08T00:31:24.257Z,11.95
2023-05-08T00:31:56.442Z,8.98
2023-05-08T00:32:28.952Z,9.90
2023-05-08T00:33:00.698Z,9.55
2023-05-08T00:33:32.407Z,10.45
2023-05-08T00:34:04.031Z,10.75
2023-05-08T00:34:35.775Z,8.95
2023-05-08T00:35:07.783Z,9.43
2023-05-08T00:35:41.673Z,7.95
2023-05-08T00:36:15.743Z,9.30
2023-05-08T00:36:47.525Z,11.43
2023-05-08T00:37:19.129Z,10.18
2023-05-08T00:37:50.799Z,10.07
2023-05-08T00:38:22.491Z,8.50
2023-05-08T00:38:54.580Z,10.95
2023-05-08T00:39:26.225Z,9.85
2023-05-08T00:39:57.841Z,8.98
2023-05-08T00:40:29.495Z,10.38
2023-05-08T00:41:01.851Z,9.27
2023-05-08T00:41:33.442Z,9.63
2023-05-08T00:42:05.057Z,9.52
2023-05-08T00:42:36.942Z,8.60
2023-05-08T00:43:08.555Z,9.40
2023-05-08T00:43:40.386Z,9.95
2023-05-08T00:44:12.182Z,9.32
2023-05-08T00:44:43.833Z,10.82
2023-05-08T00:45:15.494Z,10.07
2023-05-08T00:45:47.289Z,12.20
2023-05-08T00:46:19.029Z,9.68
2023-05-08T00:46:52.041Z,8.73
2023-05-08T00:47:23.687Z,9.43
2023-05-08T00:47:55.686Z,10.05
2023-05-08T00:48:34.103Z,9.18
2023-05-08T00:49:06.038Z,9.00
2023-05-08T00:49:38.716Z,11.90
2023-05-08T00:50:10.936Z,11.25
2023-05-08T00:50:42.613Z,8.43
2023-05-08T00:51:16.313Z,9.63
2023-05-08T00:51:51.926Z,9.95
2023-05-08T00:52:23.698Z,9.93
2023-05-08T00:52:56.857Z,10.35
2023-05-08T00:53:32.079Z,9.55
2023-05-08T00:54:04.193Z,8.90
2023-05-08T00:54:38.188Z,10.15
2023-05-08T00:55:10.065Z,9.85
2023-05-08T00:55:41.963Z,9.45
2023-05-08T00:56:15.538Z,8.93
2023-05-08T00:56:47.480Z,8.80
2023-05-08T00:57:19.427Z,8.43
2023-05-08T00:57:52.850Z,9.75
2023-05-08T00:58:27.165Z,9.10
2023-05-08T00:58:59.171Z,9.88
2023-05-08T00:59:30.954Z,8.88
2023-05-08T01:00:04.440Z,10.38
2023-05-08T01:00:37.537Z,9.82
2023-05-08T01:01:09.349Z,8.63
2023-05-08T01:01:41.917Z,11.02
2023-05-08T01:02:14.163Z,10.93
2023-05-08T01:02:46.904Z,8.25
2023-05-08T01:03:18.800Z,11.38
2023-05-08T01:03:51.047Z,10.07
2023-05-08T01:04:25.449Z,10.27
2023-05-08T01:04:57.415Z,8.93
2023-05-08T01:05:29.135Z,10.13
2023-05-08T01:06:02.056Z,10.32
2023-05-08T01:06:37.328Z,9.85
2023-05-08T01:07:08.950Z,9.27
2023-05-08T01:07:40.576Z,11.13
2023-05-08T01:08:12.183Z,10.45
2023-05-08T01:08:46.061Z,11.00
2023-05-08T01:09:18.246Z,9.40
2023-05-08T01:09:49.966Z,9.00
2023-05-08T01:10:21.739Z,8.98
2023-05-08T01:11:12.178Z,10.98
2023-05-08T01:12:01.654Z,9.70
2023-05-08T01:12:48.559Z,8.80
2023-05-08T01:13:46.064Z,8.38
2023-05-08T01:14:24.601Z,11.85
2023-05-08T01:15:17.007Z,9.90
2023-05-08T01:15:54.807Z,8.32
2023-05-08T01:16:46.249Z,9.23
2023-05-08T01:17:27.420Z,10.43
2023-05-08T01:18:23.285Z,9.52
2023-05-08T01:19:23.289Z,10.63
2023-05-08T01:20:07.179Z,9.27
2023-05-08T01:21:01.323Z,9.80
2023-05-08T01:21:43.175Z,9.52
2023-05-08T01:22:14.779Z,9.35
2023-05-08T01:23:04.814Z,8.70
2023-05-08T01:24:30.897Z,10.02
2023-05-08T01:25:10.903Z,10.68
2023-05-08T01:25:54.364Z,9.15
2023-05-08T01:26:28.760Z,15.68
2023-05-08T01:27:25.260Z,9.60
2023-05-08T01:28:19.867Z,9.18
2023-05-08T01:29:09.861Z,10.32
2023-05-08T01:29:50.517Z,10.95
2023-05-08T01:30:52.530Z,8.82
2023-05-08T01:31:54.825Z,10.18
2023-05-08T01:32:29.750Z,9.00
2023-05-08T01:33:33.624Z,9.38
2023-05-08T01:34:09.087Z,8.68
2023-05-08T01:35:11.092Z,9.90
2023-05-08T01:35:53.286Z,8.90
2023-05-08T01:36:53.896Z,9.93
2023-05-08T01:37:35.825Z,9.32
2023-05-08T01:38:14.390Z,8.60
2023-05-08T01:39:01.271Z,9.35
2023-05-08T01:39:57.022Z,11.35
2023-05-08T01:40:45.364Z,8.98
2023-05-08T01:41:25.594Z,9.07
2023-05-08T01:42:11.690Z,9.05
2023-05-08T01:42:49.283Z,9.85
2023-05-08T01:43:32.681Z,9.77
2023-05-08T01:44:13.881Z,9.30
2023-05-08T01:44:50.709Z,9.18
2023-05-08T01:45:38.442Z,9.70
2023-05-08T01:46:14.893Z,11.60
2023-05-08T01:46:49.924Z,9.73
2023-05-08T01:47:25.974Z,10.40
2023-05-08T01:48:09.267Z,10.32
2023-05-08T01:48:47.476Z,10.80
2023-05-08T01:49:30.616Z,9.00
2023-05-08T01:50:15.341Z,9.68
2023-05-08T01:50:49.451Z,10.02
2023-05-08T01:51:23.797Z,10.77
2023-05-08T01:52:03.822Z,9.60
2023-05-08T01:52:43.269Z,9.30
2023-05-08T01:53:38.015Z,9.88
2023-05-08T01:54:15.088Z,9.55
2023-05-08T01:55:11.311Z,10.07
2023-05-08T01:55:44.635Z,9.35
2023-05-08T01:56:22.237Z,15.35
2023-05-08T01:56:58.081Z,9.10
2023-05-08T01:57:32.721Z,9.90
2023-05-08T01:58:11.097Z,10.77
2023-05-08T01:58:43.867Z,10.85
2023-05-08T01:59:19.751Z,10.13
2023-05-08T01:59:53.524Z,11.52
2023-05-08T02:00:28.631Z,11.57
2023-05-08T02:01:02.397Z,9.38
2023-05-08T02:01:35.003Z,9.90
2023-05-08T02:02:07.315Z,10.27
2023-05-08T02:02:39.508Z,9.88
2023-05-08T02:03:14.213Z,9.77
2023-05-08T02:03:47.161Z,9.00
2023-05-08T02:04:20.091Z,10.63
2023-05-08T02:04:52.660Z,9.23
2023-05-08T02:05:25.674Z,9.70
2023-05-08T02:05:59.112Z,11.90
2023-05-08T02:06:32.454Z,9.60
2023-05-08T02:07:05.081Z,9.02
2023-05-08T02:07:40.458Z,10.15
2023-05-08T02:08:15.164Z,11.07
2023-05-08T02:08:47.448Z,9.02
2023-05-08T02:09:21.843Z,9.75
2023-05-08T02:09:54.790Z,9.25
2023-05-08T02:10:28.617Z,11.10
2023-05-08T02:11:01.770Z,9.93
2023-05-08T02:11:35.403Z,10.00
2023-05-08T02:12:08.418Z,8.48
2023-05-08T02:12:41.674Z,9.68
2023-05-08T02:13:14.646Z,9.15
2023-05-08T02:13:48.650Z,9.25
2023-05-08T02:14:21.588Z,9.15
2023-05-08T02:14:56.346Z,8.57
2023-05-08T02:15:30.485Z,10.30
2023-05-08T02:16:03.383Z,9.32
2023-05-08T02:16:37.400Z,10.07
2023-05-08T02:17:11.535Z,8.85
2023-05-08T02:17:46.577Z,9.85
2023-05-08T02:18:22.278Z,8.50
2023-05-08T02:18:56.375Z,7.93
2023-05-08T02:19:29.198Z,8.57
2023-05-08T02:20:03.616Z,10.02
2023-05-08T02:20:36.673Z,8.23
2023-05-08T02:21:11.291Z,9.25
2023-05-08T02:21:44.809Z,8.98
2023-05-08T02:22:18.242Z,10.57
2023-05-08T02:22:51.646Z,9.60
2023-05-08T02:23:26.643Z,9.32
2023-05-08T02:23:59.430Z,9.93
2023-05-08T02:24:34.196Z,8.93
2023-05-08T02:25:07.020Z,10.25
2023-05-08T02:25:39.551Z,9.38
2023-05-08T02:26:13.834Z,8.70
2023-05-08T02:26:47.677Z,9.77
2023-05-08T02:27:22.197Z,9.32
2023-05-08T02:27:55.393Z,9.65
2023-05-08T02:28:29.627Z,9.27
2023-05-08T02:29:03.206Z,9.07
2023-05-08T02:29:36.304Z,11.43
2023-05-08T02:30:08.742Z,10.20
2023-05-08T02:30:42.886Z,10.05
2023-05-08T02:31:14.713Z,9.82
2023-05-08T02:31:47.427Z,9.55
2023-05-08T02:32:21.248Z,11.10
2023-05-08T02:32:55.039Z,10.60
2023-05-08T02:33:27.888Z,10.25
2023-05-08T02:34:00.927Z,9.65
2023-05-08T02:34:32.925Z,10.20
2023-05-08T02:35:05.677Z,10.23
2023-05-08T02:35:39.151Z,10.65
2023-05-08T02:36:16.704Z,11.25
2023-05-08T02:36:50.909Z,10.25
2023-05-08T02:37:24.347Z,9.88
2023-05-08T02:37:57.458Z,10.52
2023-05-08T02:38:30.462Z,9.00
2023-05-08T02:39:03.812Z,9.55
2023-05-08T02:39:37.620Z,11.85
2023-05-08T02:40:11.999Z,10.30
2023-05-08T02:40:48.453Z,10.65
2023-05-08T02:41:23.066Z,10.65
2023-05-08T02:41:54.792Z,11.88
2023-05-08T02:42:26.633Z,9.70
2023-05-08T02:42:58.302Z,10.25
2023-05-08T02:43:30.150Z,10.93
2023-05-08T02:44:02.371Z,10.40
2023-05-08T02:44:34.114Z,9.65
2023-05-08T02:45:06.874Z,10.32
2023-05-08T02:46:18.277Z,10.10
2023-05-08T02:46:57.094Z,10.13
2023-05-08T02:47:39.476Z,9.57
2023-05-08T02:48:25.690Z,10.77
2023-05-08T02:49:03.576Z,9.48
2023-05-08T02:49:48.702Z,11.60
2023-05-08T02:50:29.509Z,9.93
2023-05-08T02:51:10.856Z,10.27
2023-05-08T02:51:55.904Z,9.48
2023-05-08T02:52:30.040Z,10.55
2023-05-08T02:53:09.681Z,11.50
2023-05-08T02:53:56.619Z,10.43
2023-05-08T02:54:37.320Z,10.40
2023-05-08T02:55:36.386Z,13.02
2023-05-08T02:56:11.416Z,11.80
2023-05-08T02:56:56.002Z,12.73
2023-05-08T02:57:43.061Z,11.77
2023-05-08T02:58:24.191Z,10.85
2023-05-08T02:59:04.275Z,10.90
2023-05-08T02:59:45.502Z,11.15
2023-05-08T03:00:22.466Z,11.75
2023-05-08T03:01:06.734Z,12.73
2023-05-08T03:01:46.057Z,11.65
2023-05-08T03:02:25.782Z,13.18
2023-05-08T03:03:08.433Z,11.85
2023-05-08T03:03:46.506Z,11.32
2023-05-08T03:04:25.705Z,10.65
2023-05-08T03:05:03.453Z,11.23
2023-05-08T03:05:37.226Z,10.80
2023-05-08T03:06:13.406Z,10.95
2023-05-08T03:06:47.909Z,10.63
2023-05-08T03:07:26.142Z,12.88
2023-05-08T03:08:00.812Z,11.23
2023-05-08T03:08:35.265Z,13.40
2023-05-08T03:09:11.299Z,11.60
2023-05-08T03:09:49.088Z,13.05
2023-05-08T03:10:28.289Z,12.40
2023-05-08T03:11:05.737Z,12.88
2023-05-08T03:11:41.037Z,11.07
2023-05-08T03:12:20.757Z,12.13
2023-05-08T03:12:55.670Z,11.15
2023-05-08T03:13:34.487Z,11.45
2023-05-08T03:14:11.782Z,10.10
2023-05-08T03:14:51.417Z,11.25
2023-05-08T03:15:31.865Z,11.70
2023-05-08T03:16:05.782Z,11.13
2023-05-08T03:16:40.215Z,11.80
2023-05-08T03:17:15.266Z,13.00
2023-05-08T03:17:50.314Z,13.20
2023-05-08T03:18:26.316Z,11.60
2023-05-08T03:19:01.662Z,11.55
2023-05-08T03:19:37.710Z,12.43
2023-05-08T03:20:14.817Z,12.20
2023-05-08T03:20:49.868Z,11.93
2023-05-08T03:21:24.278Z,12.82
2023-05-08T03:21:57.158Z,11.07
2023-05-08T03:22:31.279Z,14.02
2023-05-08T03:23:04.732Z,11.52
2023-05-08T03:23:39.130Z,10.32
2023-05-08T03:24:12.259Z,11.80
2023-05-08T03:24:45.971Z,11.50
2023-05-08T03:25:19.747Z,11.50
2023-05-08T03:25:52.862Z,12.90
2023-05-08T03:26:24.799Z,13.23
2023-05-08T03:26:57.046Z,11.48
2023-05-08T03:27:30.621Z,13.20
2023-05-08T03:28:04.903Z,13.27
2023-05-08T03:28:37.946Z,12.90
2023-05-08T03:29:10.514Z,11.55
2023-05-08T03:29:43.987Z,12.93
2023-05-08T03:30:17.436Z,12.77
2023-05-08T03:30:51.046Z,13.80
2023-05-08T03:31:23.740Z,13.20
2023-05-08T03:31:58.639Z,12.98
2023-05-08T03:32:33.307Z,13.25
2023-05-08T03:33:07.492Z,14.38
2023-05-08T03:33:40.881Z,13.80
2023-05-08T03:34:13.682Z,13.65
2023-05-08T03:34:45.453Z,13.90
2023-05-08T03:35:18.405Z,14.45
2023-05-08T03:35:51.216Z,14.05
2023-05-08T03:36:25.013Z,15.27
2023-05-08T03:36:56.975Z,13.32
2023-05-08T03:37:28.889Z,14.50
2023-05-08T03:38:00.972Z,14.93
2023-05-08T03:38:32.674Z,14.75
2023-05-08T03:39:04.469Z,14.73
2023-05-08T03:39:36.472Z,14.07
2023-05-08T03:40:08.921Z,15.48
2023-05-08T03:40:42.624Z,15.82
2023-05-08T03:41:14.598Z,16.20
2023-05-08T03:41:46.430Z,18.02
2023-05-08T03:42:21.548Z,16.33
2023-05-08T03:42:53.355Z,15.35
2023-05-08T03:43:25.699Z,17.10
2023-05-08T03:43:58.247Z,15.48
2023-05-08T03:44:30.286Z,15.43
2023-05-08T03:45:03.334Z,17.25
2023-05-08T03:45:39.708Z,19.00
2023-05-08T03:46:12.318Z,15.40
2023-05-08T03:46:45.151Z,19.83
2023-05-08T03:47:18.379Z,17.67
2023-05-08T03:47:53.847Z,19.73
2023-05-08T03:48:27.526Z,15.25
2023-05-08T03:49:02.329Z,17.15
2023-05-08T03:49:35.117Z,17.65
2023-05-08T03:50:09.575Z,17.63
2023-05-08T03:50:41.925Z,17.88
2023-05-08T03:51:13.978Z,16.75
2023-05-08T03:51:46.072Z,17.42
2023-05-08T03:52:17.734Z,15.95
2023-05-08T03:52:50.595Z,17.00
2023-05-08T03:53:22.341Z,16.23
2023-05-08T03:53:54.040Z,17.15
2023-05-08T03:54:25.739Z,16.48
2023-05-08T03:54:57.371Z,17.13
2023-05-08T03:55:30.753Z,17.27
2023-05-08T03:56:02.890Z,17.67
2023-05-08T03:56:34.870Z,17.27
2023-05-08T03:57:06.763Z,17.08
2023-05-08T03:57:50.687Z,18.90
2023-05-08T03:58:33.084Z,17.08
2023-05-08T03:59:33.807Z,15.93
2023-05-08T04:00:17.140Z,17.55
2023-05-08T04:01:07.529Z,16.10
2023-05-08T04:01:43.448Z,17.50
2023-05-08T04:02:42.966Z,15.38
2023-05-08T04:03:25.351Z,17.55
2023-05-08T04:04:19.874Z,15.05
2023-05-08T04:04:59.922Z,15.70
2023-05-08T04:05:47.287Z,16.67
2023-05-08T04:06:57.089Z,16.75
2023-05-08T04:07:42.971Z,17.52
2023-05-08T04:08:22.802Z,14.73
2023-05-08T04:09:04.614Z,18.75
2023-05-08T04:09:43.349Z,17.08
2023-05-08T04:10:29.147Z,17.80
2023-05-08T04:11:17.492Z,18.52
2023-05-08T04:12:02.242Z,18.00
2023-05-08T04:12:45.428Z,18.27
2023-05-08T04:13:25.733Z,18.02
2023-05-08T04:14:02.216Z,16.55
2023-05-08T04:14:43.621Z,17.70
2023-05-08T04:15:22.129Z,19.17
2023-05-08T04:16:07.403Z,18.13
2023-05-08T04:16:44.725Z,19.33
2023-05-08T04:17:42.129Z,16.55
2023-05-08T04:18:19.071Z,17.48
2023-05-08T04:18:54.389Z,17.75
2023-05-08T04:19:32.991Z,19.15
2023-05-08T04:20:07.211Z,17.33
2023-05-08T04:20:46.199Z,18.15
2023-05-08T04:21:25.114Z,16.65
2023-05-08T04:22:01.664Z,16.48
2023-05-08T04:22:34.760Z,17.48
2023-05-08T04:23:07.610Z,18.00
2023-05-08T04:23:41.586Z,17.05
2023-05-08T04:24:16.598Z,15.75
2023-05-08T04:24:50.223Z,16.95
2023-05-08T04:25:22.449Z,17.80
2023-05-08T04:25:55.988Z,18.77
2023-05-08T04:26:29.545Z,17.38
2023-05-08T04:27:02.911Z,18.88
2023-05-08T04:27:35.591Z,18.52
2023-05-08T04:28:07.748Z,18.52
2023-05-08T04:28:40.019Z,17.77
2023-05-08T04:29:11.864Z,17.23
2023-05-08T04:29:43.753Z,19.95
2023-05-08T04:30:15.930Z,17.65
2023-05-08T04:30:47.654Z,17.83
2023-05-08T04:31:19.964Z,22.48
2023-05-08T04:31:51.978Z,17.67
2023-05-08T04:32:24.385Z,16.92
2023-05-08T04:32:56.763Z,18.17
2023-05-08T04:33:29.466Z,18.80
2023-05-08T04:34:02.899Z,19.70
2023-05-08T04:34:35.336Z,17.98
2023-05-08T04:35:08.007Z,18.70
2023-05-08T04:35:39.638Z,18.65
2023-05-08T04:36:13.592Z,19.17
2023-05-08T04:36:45.306Z,16.52
2023-05-08T04:37:27.729Z,17.38
2023-05-08T04:37:59.964Z,20.45
2023-05-08T04:38:31.663Z,19.35
2023-05-08T04:39:03.708Z,20.05
2023-05-08T04:39:35.318Z,21.40
2023-05-08T04:40:07.895Z,16.77
2023-05-08T04:40:39.516Z,20.08
2023-05-08T04:41:11.325Z,21.10
2023-05-08T04:41:43.141Z,18.65
2023-05-08T04:42:14.759Z,21.95
2023-05-08T04:42:47.837Z,17.23
2023-05-08T04:43:19.620Z,19.45
2023-05-08T04:43:51.376Z,18.38
2023-05-08T04:44:22.954Z,17.73
2023-05-08T04:44:54.937Z,17.85
2023-05-08T04:45:26.935Z,17.95
2023-05-08T04:45:58.592Z,19.83
2023-05-08T04:46:30.260Z,18.38
2023-05-08T04:47:02.011Z,18.13
2023-05-08T04:47:33.630Z,18.10
2023-05-08T04:48:05.737Z,21.52
2023-05-08T04:48:37.809Z,16.77
2023-05-08T04:49:09.403Z,19.15
2023-05-08T04:49:41.152Z,17.33
2023-05-08T04:50:12.950Z,19.15
2023-05-08T04:50:44.565Z,18.27
2023-05-08T04:51:16.218Z,17.20
2023-05-08T04:51:47.835Z,17.08
2023-05-08T04:52:19.461Z,17.17
2023-05-08T04:52:51.076Z,19.88
2023-05-08T04:53:22.724Z,17.80
2023-05-08T04:53:54.284Z,17.60
2023-05-08T04:54:25.867Z,18.25
2023-05-08T04:54:57.541Z,18.50
2023-05-08T04:55:29.242Z,18.50
2023-05-08T04:56:00.890Z,19.48
2023-05-08T04:56:32.628Z,16.98
2023-05-08T04:57:04.492Z,18.85
2023-05-08T04:57:36.126Z,19.00
2023-05-08T04:58:07.819Z,17.88
2023-05-08T04:58:39.553Z,19.85
2023-05-08T04:59:12.234Z,18.45
2023-05-08T04:59:44.734Z,19.30
2023-05-08T05:00:16.635Z,21.15
2023-05-08T05:00:48.251Z,20.30
2023-05-08T05:01:19.867Z,17.90
2023-05-08T05:01:52.028Z,18.40
2023-05-08T05:02:26.172Z,17.15
2023-05-08T05:02:57.823Z,18.77
2023-05-08T05:03:29.542Z,20.42
2023-05-08T05:04:01.325Z,17.83
2023-05-08T05:04:32.998Z,19.70
2023-05-08T05:05:04.936Z,18.35
2023-05-08T05:05:38.809Z,17.35
2023-05-08T05:06:10.738Z,16.77
2023-05-08T05:06:42.372Z,19.52
2023-05-08T05:07:14.002Z,18.48
2023-05-08T05:07:45.597Z,17.45
2023-05-08T05:08:17.191Z,19.75
2023-05-08T05:08:48.822Z,17.45
2023-05-08T05:09:20.717Z,18.95
2023-05-08T05:09:52.338Z,19.35
2023-05-08T05:10:23.911Z,18.65
2023-05-08T05:10:55.650Z,17.30
2023-05-08T05:11:27.680Z,17.45
2023-05-08T05:11:59.360Z,16.52
2023-05-08T05:12:31.163Z,18.63
2023-05-08T05:13:02.816Z,19.30
2023-05-08T05:13:34.489Z,19.60
2023-05-08T05:14:07.264Z,18.50
2023-05-08T05:14:38.867Z,17.58
2023-05-08T05:15:11.086Z,21.45
2023-05-08T05:15:43.459Z,17.98
2023-05-08T05:16:15.163Z,18.17
2023-05-08T05:16:47.301Z,16.13
2023-05-08T05:17:18.877Z,17.98
2023-05-08T05:17:50.926Z,18.83
2023-05-08T05:18:22.647Z,20.50
2023-05-08T05:18:54.523Z,17.92
2023-05-08T05:19:27.261Z,19.23
2023-05-08T05:19:59.897Z,19.02
2023-05-08T05:20:31.958Z,18.38
2023-05-08T05:21:03.702Z,17.88
2023-05-08T05:21:37.780Z,17.95
2023-05-08T05:22:09.629Z,18.48
2023-05-08T05:22:41.273Z,17.05
2023-05-08T05:23:12.952Z,18.67
2023-05-08T05:23:44.720Z,18.55
2023-05-08T05:24:16.389Z,18.35
2023-05-08T05:24:48.049Z,17.98
2023-05-08T05:25:19.802Z,17.58
2023-05-08T05:25:51.414Z,17.55
2023-05-08T05:26:23.362Z,20.60
2023-05-08T05:26:54.948Z,18.58
2023-05-08T05:27:26.572Z,18.45
2023-05-08T05:27:58.226Z,18.70
2023-05-08T05:28:29.878Z,18.60
2023-05-08T05:29:01.545Z,19.55
2023-05-08T05:29:33.156Z,18.58
2023-05-08T05:30:05.475Z,18.98
2023-05-08T05:30:37.209Z,17.80
2023-05-08T05:31:08.850Z,18.48
2023-05-08T05:31:40.595Z,18.80
2023-05-08T05:32:12.234Z,19.33
2023-05-08T05:32:43.930Z,20.52
2023-05-08T05:33:15.619Z,18.50
2023-05-08T05:33:47.262Z,20.25
2023-05-08T05:34:19.035Z,18.23
2023-05-08T05:34:51.174Z,18.45
2023-05-08T05:35:25.486Z,16.98
2023-05-08T05:35:57.377Z,18.30
2023-05-08T05:36:29.510Z,18.10
2023-05-08T05:37:01.130Z,17.95
2023-05-08T05:37:32.764Z,17.17
2023-05-08T05:38:05.473Z,18.27
2023-05-08T05:38:37.091Z,18.17
2023-05-08T05:39:08.697Z,18.23
2023-05-08T05:39:40.356Z,17.95
2023-05-08T05:40:15.465Z,18.02
2023-05-08T05:40:47.063Z,18.98
2023-05-08T05:41:18.731Z,17.33
2023-05-08T05:41:50.345Z,20.77
2023-05-08T05:42:22.580Z,17.17
2023-05-08T05:42:54.194Z,17.52
2023-05-08T05:43:25.835Z,17.20
2023-05-08T05:43:57.510Z,17.27
2023-05-08T05:44:29.192Z,16.67
2023-05-08T05:45:02.042Z,18.92
2023-05-08T05:45:33.882Z,18.02
2023-05-08T05:46:09.902Z,18.05
2023-05-08T05:46:44.239Z,17.88
2023-05-08T05:47:16.324Z,17.77
2023-05-08T05:47:50.116Z,19.80
2023-05-08T05:48:22.228Z,17.38
2023-05-08T05:48:54.012Z,16.75
2023-05-08T05:49:25.596Z,18.45
2023-05-08T05:49:57.844Z,17.02
2023-05-08T05:50:29.467Z,16.75
2023-05-08T05:51:01.385Z,20.05
2023-05-08T05:51:33.049Z,16.77
2023-05-08T05:52:04.686Z,16.40
2023-05-08T05:52:36.318Z,17.95
2023-05-08T05:53:08.004Z,18.55
2023-05-08T05:53:39.604Z,18.63
2023-05-08T05:54:11.221Z,18.08
2023-05-08T05:54:42.880Z,17.92
2023-05-08T05:55:14.901Z,18.83
2023-05-08T05:55:46.691Z,19.92
2023-05-08T05:56:18.295Z,17.77
2023-05-08T05:56:49.992Z,18.45
2023-05-08T05:57:21.598Z,17.17
2023-05-08T05:57:53.193Z,18.13
2023-05-08T05:58:24.777Z,17.00
2023-05-08T05:58:56.489Z,18.20
2023-05-08T05:59:28.136Z,18.60
2023-05-08T06:00:00.108Z,18.83
2023-05-08T06:00:31.942Z,17.60
2023-05-08T06:01:03.750Z,20.30
2023-05-08T06:01:35.416Z,17.55
2023-05-08T06:02:10.589Z,18.58
2023-05-08T06:02:43.046Z,19.50
2023-05-08T06:03:14.876Z,18.08
2023-05-08T06:03:47.378Z,19.92
2023-05-08T06:04:19.267Z,22.17
2023-05-08T06:04:53.616Z,18.27
2023-05-08T06:05:25.371Z,17.38
2023-05-08T06:05:57.054Z,19.92
2023-05-08T06:06:29.354Z,19.08
2023-05-08T06:07:01.002Z,18.10
2023-05-08T06:07:32.612Z,19.42
2023-05-08T06:08:05.827Z,19.45
2023-05-08T06:08:37.405Z,19.90
2023-05-08T06:09:09.239Z,20.15
2023-05-08T06:09:41.196Z,17.73
2023-05-08T06:10:13.348Z,17.65
2023-05-08T06:10:45.061Z,18.30
2023-05-08T06:11:17.099Z,17.60
2023-05-08T06:11:48.796Z,17.95
2023-05-08T06:12:20.600Z,20.33
2023-05-08T06:12:52.518Z,17.80
2023-05-08T06:13:24.481Z,17.00
2023-05-08T06:13:56.228Z,17.17
2023-05-08T06:14:27.835Z,17.92
2023-05-08T06:14:59.502Z,17.50
2023-05-08T06:15:31.435Z,18.08
2023-05-08T06:16:03.506Z,17.15
2023-05-08T06:16:35.762Z,17.53
2023-05-08T06:17:07.532Z,18.73
2023-05-08T06:17:39.327Z,16.50
2023-05-08T06:18:11.149Z,17.23
2023-05-08T06:18:42.943Z,17.52
2023-05-08T06:19:14.619Z,16.83
2023-05-08T06:19:50.497Z,17.52
2023-05-08T06:20:23.499Z,16.27
2023-05-08T06:20:58.182Z,17.02
2023-05-08T06:21:29.887Z,19.38
2023-05-08T06:22:01.610Z,17.33
2023-05-08T06:22:33.255Z,15.63
2023-05-08T06:23:05.630Z,16.55
2023-05-08T06:23:37.471Z,46.88
2023-05-08T06:24:09.256Z,116.90
2023-05-08T06:24:40.818Z,55.65
2023-05-08T06:25:12.666Z,33.88
2023-05-08T06:25:44.609Z,14.98
2023-05-08T06:26:16.233Z,30.02
2023-05-08T06:26:47.896Z,17.00
2023-05-08T06:27:21.085Z,15.13
2023-05-08T06:27:52.686Z,15.82
2023-05-08T06:28:26.090Z,23.67
2023-05-08T06:28:57.717Z,38.13
2023-05-08T06:29:29.281Z,24.13
2023-05-08T06:30:01.134Z,16.10
2023-05-08T06:30:32.740Z,17.10
2023-05-08T06:31:04.511Z,19.27
2023-05-08T06:31:36.349Z,14.70
2023-05-08T06:32:08.077Z,15.63
2023-05-08T06:32:39.705Z,12.70
2023-05-08T06:33:11.455Z,13.23
2023-05-08T06:33:43.171Z,11.52
2023-05-08T06:34:14.801Z,12.80
2023-05-08T06:34:46.621Z,12.50
2023-05-08T06:35:19.422Z,11.57
2023-05-08T06:35:51.155Z,12.23
2023-05-08T06:36:22.767Z,12.30
2023-05-08T06:36:54.409Z,11.13
2023-05-08T06:37:27.899Z,12.55
2023-05-08T06:37:59.962Z,11.60
2023-05-08T06:38:31.785Z,11.65
2023-05-08T06:39:06.669Z,13.25
2023-05-08T06:39:38.492Z,12.32
2023-05-08T06:40:12.633Z,11.05
2023-05-08T06:40:45.833Z,13.30
2023-05-08T06:41:17.463Z,12.45
2023-05-08T06:41:49.291Z,12.82
2023-05-08T06:42:21.221Z,12.65
2023-05-08T06:42:52.865Z,15.65
2023-05-08T06:43:24.584Z,12.60
2023-05-08T06:43:56.160Z,10.82
2023-05-08T06:44:27.785Z,10.98
2023-05-08T06:44:59.351Z,12.52
2023-05-08T06:45:31.001Z,14.23
2023-05-08T06:46:02.656Z,12.48
2023-05-08T06:46:34.380Z,10.43
2023-05-08T06:47:06.758Z,11.23
2023-05-08T06:47:38.472Z,11.68
2023-05-08T06:48:10.225Z,11.10
2023-05-08T06:48:41.858Z,10.63
2023-05-08T06:49:13.540Z,11.95
2023-05-08T06:49:45.136Z,10.93
2023-05-08T06:50:16.716Z,12.05
2023-05-08T06:50:48.473Z,11.25
2023-05-08T06:51:23.208Z,14.55
2023-05-08T06:51:57.264Z,15.95
2023-05-08T06:52:29.507Z,15.23
2023-05-08T06:53:01.762Z,16.00
2023-05-08T06:53:33.405Z,14.38
2023-05-08T06:54:08.913Z,14.57
2023-05-08T06:54:42.167Z,15.88
2023-05-08T06:55:13.946Z,12.25
2023-05-08T06:55:45.801Z,13.48
2023-05-08T06:56:17.464Z,12.65
2023-05-08T06:56:49.058Z,11.65
2023-05-08T06:57:20.754Z,10.90
2023-05-08T06:57:52.479Z,10.93
2023-05-08T06:58:24.059Z,9.95
2023-05-08T06:59:04.854Z,9.98
2023-05-08T06:59:39.928Z,9.80
2023-05-08T07:00:12.569Z,9.52
2023-05-08T07:00:44.338Z,9.82
2023-05-08T07:01:16.172Z,11.07
2023-05-08T07:01:47.957Z,10.45
2023-05-08T07:02:20.275Z,10.05
2023-05-08T07:02:52.646Z,8.60
2023-05-08T07:03:24.830Z,8.80
2023-05-08T07:03:56.677Z,9.60
2023-05-08T07:04:30.752Z,7.15
2023-05-08T07:05:04.014Z,7.10
2023-05-08T07:05:36.302Z,8.13
2023-05-08T07:06:09.735Z,9.88
2023-05-08T07:06:41.316Z,9.23
2023-05-08T07:07:14.193Z,8.88
2023-05-08T07:07:46.285Z,10.48
2023-05-08T07:08:17.890Z,9.43
2023-05-08T07:08:50.934Z,10.10
2023-05-08T07:09:22.513Z,9.73
2023-05-08T07:09:54.108Z,10.25
2023-05-08T07:10:25.914Z,10.57
2023-05-08T07:10:57.534Z,8.88
2023-05-08T07:11:29.116Z,9.48
2023-05-08T07:12:01.113Z,10.75
2023-05-08T07:12:32.818Z,10.32
2023-05-08T07:13:04.603Z,9.82
2023-05-08T07:13:36.757Z,10.38
2023-05-08T07:14:08.829Z,10.50
2023-05-08T07:14:40.402Z,8.85
2023-05-08T07:15:24.797Z,9.70
2023-05-08T07:15:57.941Z,9.03
2023-05-08T07:16:29.655Z,10.70
2023-05-08T07:17:08.339Z,10.10
2023-05-08T07:17:39.957Z,8.90
2023-05-08T07:18:11.590Z,9.57
2023-05-08T07:18:43.902Z,10.00
2023-05-08T07:19:15.942Z,11.75
2023-05-08T07:19:51.339Z,10.52
2023-05-08T07:20:24.473Z,12.68
2023-05-08T07:20:56.283Z,12.20
2023-05-08T07:21:27.982Z,11.17
2023-05-08T07:22:00.958Z,11.43
2023-05-08T07:22:32.536Z,9.55
2023-05-08T07:23:04.181Z,7.72
2023-05-08T07:23:35.772Z,9.50
2023-05-08T07:24:07.997Z,10.90
2023-05-08T07:24:39.658Z,9.60
2023-05-08T07:25:11.334Z,12.00
2023-05-08T07:25:43.220Z,10.07
2023-05-08T07:26:14.931Z,9.40
2023-05-08T07:26:46.572Z,5.90
2023-05-08T07:27:18.162Z,5.03
2023-05-08T07:27:49.745Z,5.40
2023-05-08T07:28:21.590Z,4.72
2023-05-08T07:28:54.341Z,4.93